Brookwood, AL

6:00 AM CST on March 02, 2015 (GMT -0600)
Lake View North | Change Station
CLOSE
Current Station
Personal Weather Station
Location: Lake View, AL
Elevation: 565 ft
Nearby Weather Stations
Active Advisory: Dense Fog Advisory

Elev 565 ft 33.29 °N, 87.14 °W | Updated 37 seconds ago

Rain
Rain
50.4 °F
Feels Like 50.4 °F
N
0.0
Wind Variable Wind from NE
Gusts 0.0 mph

Today
High -- | Low -- °F
--% Chance of Precip.
Yesterday
High -- | Low -- °F
Precip. -- in
6:15 AM 5:45 PM
Waxing Gibbous, 91% visible
Pressure 30.31 in
Visibility 0.5 miles
Clouds
Dew Point 50 °F
Humidity 99%
Rainfall 0.07 in
Snow Depth Not available.
UV Not available.
Pollen 9.20 out of 12
Air Quality Not available.
Flu Activity Not available.
METAR KEET 021153Z AUTO 00000KT 1/2SM FG VV002 10/10 A3031 RMK AO2 RAB30E51 SLP262 P0000 60001 70008 T01000100 10106 20100 53002

More Conditions Fewer Conditions

Pressure 30.31 in
Visibility 0.5 miles
Clouds
Dew Point 50 °F
Humidity 99%
Rainfall 0.07 in
Snow Depth Not available.
UV Not available.
Pollen 9.20 out of 12
Air Quality Not available.
Flu Activity Not available.
METAR KEET 021153Z AUTO 00000KT 1/2SM FG VV002 10/10 A3031 RMK AO2 RAB30E51 SLP262 P0000 60001 70008 T01000100 10106 20100 53002

More Conditions Fewer Conditions

10-Day Weather Forecast

Almanac

Astronomy

Mar. 02, 2015 Rise Set
Actual Time
Civil Twilight
Nautical Twilight
Astronomical Twilight
Moon
Length of Visible Light
Length of Day
Tomorrow will be .
, % of the Moon is Illuminated

Today's Extremes

State Highs State Lows

Community

WunderPhotos

Upload Photos

1,801,761 photos uploaded!

WunderBlogs® & News

Nearby

Air Quality

  Air Quality AQ Index Pollutant
Not available.

Snow Depth

Station Depth Elevation

Earthquake Activity

City Distance Mag. Time & Date
Minimum magnitude displayed is 2.5.

Coastal Water Temperatures

Place Temperature

Nearby Weather Stations

Dense Fog Advisory
Statement as of 3:50 AM CST on March 02, 2015

... Dense fog advisory in effect until 9 am CST this morning...

The National Weather Service in Birmingham has issued a dense fog
advisory... which is in effect until 9 am CST this morning.

* Visibilities... less than a half mile in many areas.

* Impacts... hazardous driving conditions due to reduced
visibilities.


Precautionary/preparedness actions...

A dense fog advisory means visibilities will frequently be
reduced to one quarter mile or less. If driving... slow down... use
your headlights... and leave plenty of distance ahead of you. Low
beam headlights work best in dense fog conditions.